Amsterdam, Montana
Current Conditions -  °F | °C
As of 11:56 PM on Saturday 25 Oct 2014 (Local Time) from KBZN Reporting Station
Clear Clear  
Wind Chill: 45°   Ceiling: Unl
Heat Index: 45°   Visibility: 10mi
Dew Point: 34°   Wind: 0mph
Humidity: 65%   Direction: NA
Pressure: 29.69"   Gusts: NA
Location:  45.7517°N, 111.347°W
Report Text: KBZN 260556Z 00000KT 10SM CLR 07/01 A2969 RMK AO2 SLP060 T00720011 10189 20050 56010
Loading
Personal Weather Stations






























Interactive Weather Map
Tropical Storm Tracking
New forecast layout! Learn more

10-Day Weather Forecast

Advertisements
Track Severe Weather on mobile